Time;durP1;ratioP1;P1;durP2;ratioP2;P2;SDS_P1;SDS_P2;PMS_P1;PMS_P2;Temp;Humidity;BMP_temperature;BMP_pressure;BME280_temperature;BME280_humidity;BME280_pressure;Samples;Min_cycle;Max_cycle;Signal;HPM_P1;HPM_P2
2023/12/22 00:00:29;;;;;;;0.00;0.00;;;;;;;33.98;17.59;100390.72;5049216;28;20029;-76
2023/12/22 00:02:54;;;;;;;18.97;2.73;;;;;;;32.94;18.55;100398.88;5066368;28;20039;-76
2023/12/22 00:05:20;;;;;;;0.00;0.00;;;;;;;30.74;20.20;100398.91;5070311;28;20032;-76
2023/12/22 00:07:45;;;;;;;0.00;0.00;;;;;;;30.11;20.53;100414.16;5053041;28;20017;-76
2023/12/22 00:10:10;;;;;;;0.27;0.27;;;;;;;32.76;18.18;100406.38;5050342;28;20033;-76
2023/12/22 00:12:38;;;;;;;0.00;0.00;;;;;;;34.20;17.09;100415.31;5054605;28;20021;-75
2023/12/22 00:15:04;;;;;;;0.03;0.03;;;;;;;33.20;17.61;100408.63;5050469;28;20025;-76
2023/12/22 00:17:29;;;;;;;2.47;2.00;;;;;;;32.90;18.34;100402.94;5060638;28;20070;-76
2023/12/22 00:19:58;;;;;;;0.67;0.67;;;;;;;31.45;19.24;100407.78;5056046;28;20431;-76
2023/12/22 00:22:25;;;;;;;0.00;0.00;;;;;;;33.21;17.70;100404.91;5060442;28;20029;-76
2023/12/22 00:24:50;;;;;;;0.00;0.00;;;;;;;33.06;17.61;100412.06;5058842;28;20075;-76
2023/12/22 00:27:15;;;;;;;0.10;0.10;;;;;;;33.79;17.47;100396.59;5047950;28;20419;-76
2023/12/22 00:29:41;;;;;;;2.03;1.90;;;;;;;32.15;18.13;100398.56;5049727;28;20025;-77
2023/12/22 00:32:09;;;;;;;0.00;0.00;;;;;;;32.61;17.06;100387.25;5057834;28;20476;-76
2023/12/22 00:34:35;;;;;;;0.30;0.30;;;;;;;31.45;18.11;100380.78;5062180;28;20032;-77
2023/12/22 00:37:00;;;;;;;0.00;0.00;;;;;;;30.01;18.74;100386.44;5054722;28;20480;-77
2023/12/22 00:39:26;;;;;;;0.43;0.43;;;;;;;32.88;16.50;100385.19;5060339;28;20485;-77
2023/12/22 00:41:51;;;;;;;0.00;0.00;;;;;;;31.65;17.06;100380.53;5053456;28;20468;-76
2023/12/22 00:44:17;;;;;;;0.00;0.00;;;;;;;29.84;19.14;100385.38;5068909;28;20024;-76
2023/12/22 00:46:42;;;;;;;0.10;0.10;;;;;;;30.07;19.24;100392.03;5067382;28;20045;-77
2023/12/22 00:49:07;;;;;;;0.00;0.00;;;;;;;29.49;19.26;100387.84;5051428;28;20021;-76
2023/12/22 00:51:33;;;;;;;0.30;0.30;;;;;;;30.45;18.54;100397.31;5054478;28;20131;-77
2023/12/22 00:53:58;;;;;;;0.00;0.00;;;;;;;31.96;16.68;100400.53;5073518;28;20032;-77
2023/12/22 00:56:23;;;;;;;0.40;0.40;;;;;;;29.74;18.30;100423.16;5060327;28;20112;-76
2023/12/22 00:58:49;;;;;;;0.53;0.53;;;;;;;30.75;17.15;100416.78;5086131;28;20151;-76
2023/12/22 01:01:14;;;;;;;3.80;1.33;;;;;;;32.35;16.04;100423.41;5049287;28;20029;-76
2023/12/22 01:03:40;;;;;;;0.00;0.00;;;;;;;31.86;16.50;100416.06;5067744;28;20047;-76
2023/12/22 01:06:08;;;;;;;0.00;0.00;;;;;;;31.22;16.85;100424.50;5056386;28;20061;-77
2023/12/22 01:08:33;;;;;;;9.40;2.40;;;;;;;30.01;17.55;100418.78;5068616;28;20423;-77
2023/12/22 01:10:59;;;;;;;8.33;1.40;;;;;;;31.54;15.82;100422.97;5042457;28;20029;-76
2023/12/22 01:13:24;;;;;;;5.93;1.00;;;;;;;32.43;15.52;100414.47;5065551;28;20706;-76
2023/12/22 01:15:50;;;;;;;3.23;0.87;;;;;;;31.65;16.04;100431.84;5072189;28;20073;-77
2023/12/22 01:18:15;;;;;;;9.87;2.20;;;;;;;31.20;16.41;100437.34;5059364;28;20385;-76
2023/12/22 01:20:41;;;;;;;6.63;0.70;;;;;;;29.59;18.29;100447.03;5052992;28;20070;-76
2023/12/22 01:23:06;;;;;;;10.87;2.00;;;;;;;31.73;16.43;100416.50;5062058;28;20131;-76
2023/12/22 01:25:31;;;;;;;4.33;1.23;;;;;;;31.92;16.13;100431.59;5051476;28;20409;-76
2023/12/22 01:27:57;;;;;;;16.63;2.70;;;;;;;32.40;16.05;100426.47;5053862;28;20039;-77
2023/12/22 01:30:22;;;;;;;20.10;1.37;;;;;;;31.34;16.55;100427.81;5051096;28;20385;-76
2023/12/22 01:32:47;;;;;;;2.03;0.87;;;;;;;29.89;17.77;100416.28;5059967;28;20154;-76
2023/12/22 01:35:14;;;;;;;10.63;1.87;;;;;;;31.35;16.45;100423.22;5071734;28;20122;-76
2023/12/22 01:37:39;;;;;;;5.07;1.00;;;;;;;33.73;14.39;100429.78;5054916;28;20496;-76
2023/12/22 01:40:08;;;;;;;8.40;0.83;;;;;;;32.47;15.44;100450.97;5051748;28;20056;-77
2023/12/22 01:42:34;;;;;;;7.70;1.50;;;;;;;31.70;15.64;100464.63;5051569;28;20025;-76
2023/12/22 01:44:59;;;;;;;11.17;2.27;;;;;;;32.75;15.42;100461.50;5052615;28;20512;-76
2023/12/22 01:47:25;;;;;;;3.60;0.77;;;;;;;31.76;16.06;100469.34;5053125;28;20278;-77
2023/12/22 01:49:51;;;;;;;7.60;1.17;;;;;;;31.76;16.20;100463.94;5051823;28;20116;-77
2023/12/22 01:52:16;;;;;;;10.57;1.50;;;;;;;32.06;15.66;100453.59;5055154;28;20020;-76
2023/12/22 01:54:42;;;;;;;4.27;0.80;;;;;;;31.63;16.39;100459.03;5050367;28;20151;-76
2023/12/22 01:57:08;;;;;;;4.43;0.93;;;;;;;30.02;17.38;100459.03;5044846;28;20037;-76
2023/12/22 01:59:34;;;;;;;4.23;0.87;;;;;;;29.95;17.47;100442.63;5050875;28;20033;-76
2023/12/22 02:02:03;;;;;;;10.33;1.57;;;;;;;33.93;14.37;100432.94;5051981;28;20074;-77
2023/12/22 02:04:31;;;;;;;10.73;0.77;;;;;;;30.64;16.79;100458.31;5069872;28;20118;-77
2023/12/22 02:07:00;;;;;;;8.37;0.97;;;;;;;33.15;15.45;100451.63;5071171;28;20020;-77
2023/12/22 02:09:26;;;;;;;8.53;2.60;;;;;;;32.33;15.90;100454.31;5049895;28;20044;-76
2023/12/22 02:11:51;;;;;;;6.30;0.87;;;;;;;34.17;14.86;100442.78;5039446;28;20384;-76
2023/12/22 02:14:17;;;;;;;10.03;1.30;;;;;;;33.65;15.14;100455.91;5050808;28;20120;-76
2023/12/22 02:16:49;;;;;;;21.07;2.13;;;;;;;34.93;14.56;100453.75;5051267;28;20028;-77
2023/12/22 02:19:37;;;;;;;12.20;2.43;;;;;;;32.14;16.64;100459.00;5051464;28;20154;-76
2023/12/22 02:22:07;;;;;;;11.37;1.83;;;;;;;32.59;16.43;100443.34;5049944;28;20029;-77
2023/12/22 02:24:33;;;;;;;8.07;1.93;;;;;;;31.96;16.93;100434.81;5054898;28;20025;-76
2023/12/22 02:27:25;;;;;;;5.77;1.00;;;;;;;31.19;17.84;100432.94;5050567;28;20367;-77
2023/12/22 02:29:57;;;;;;;10.63;0.93;;;;;;;31.83;17.21;100443.38;5040897;28;20140;-77
2023/12/22 02:32:29;;;;;;;9.05;2.33;;;;;;;31.59;17.50;100426.06;5052644;28;20029;-77
2023/12/22 02:34:56;;;;;;;7.57;1.15;;;;;;;31.87;17.29;100430.41;5031870;28;20033;-76
2023/12/22 02:37:23;;;;;;;5.03;1.20;;;;;;;32.33;16.97;100443.50;5052404;28;20560;-77
2023/12/22 02:39:51;;;;;;;8.30;1.60;;;;;;;31.53;17.41;100434.81;5051942;28;20575;-77
2023/12/22 02:42:19;;;;;;;10.20;0.87;;;;;;;31.46;17.05;100420.25;5051643;28;20527;-76
2023/12/22 02:44:45;;;;;;;11.33;1.43;;;;;;;31.34;17.27;100426.94;5068830;28;20492;-76
2023/12/22 02:47:10;;;;;;;9.23;1.47;;;;;;;30.05;18.00;100421.00;5067594;28;20028;-78
2023/12/22 02:49:35;;;;;;;9.00;1.13;;;;;;;31.09;17.82;100413.31;5047175;28;20477;-76
2023/12/22 02:52:01;;;;;;;6.23;1.30;;;;;;;30.14;18.12;100434.56;5031242;28;20530;-77
2023/12/22 02:54:29;;;;;;;11.60;1.20;;;;;;;32.36;16.79;100422.41;5045234;28;20032;-76
2023/12/22 02:56:55;;;;;;;7.53;0.93;;;;;;;33.38;15.84;100429.25;5052354;28;20027;-77
2023/12/22 02:59:20;;;;;;;5.03;1.33;;;;;;;30.74;18.01;100425.88;5061901;28;20457;-77
2023/12/22 03:01:46;;;;;;;1.83;0.80;;;;;;;31.09;17.90;100421.41;5053307;28;20032;-77
2023/12/22 03:04:11;;;;;;;12.10;1.90;;;;;;;32.21;16.58;100413.28;5060984;28;20116;-78
2023/12/22 03:06:36;;;;;;;11.40;1.20;;;;;;;32.72;16.04;100424.78;5070650;28;20027;-77
2023/12/22 03:09:02;;;;;;;7.57;1.17;;;;;;;32.62;16.26;100424.94;5061394;28;20048;-77
2023/12/22 03:11:28;;;;;;;10.43;1.73;;;;;;;30.52;17.42;100428.03;5046747;28;20026;-78
2023/12/22 03:13:53;;;;;;;4.77;1.47;;;;;;;31.76;16.52;100440.47;5072999;28;20036;-77
2023/12/22 03:16:18;;;;;;;6.30;1.13;;;;;;;31.18;16.76;100415.06;5069799;28;20058;-78
2023/12/22 03:18:44;;;;;;;9.37;1.33;;;;;;;31.38;16.80;100417.50;5059961;28;20025;-78
2023/12/22 03:21:16;;;;;;;4.13;0.77;;;;;;;32.42;16.11;100426.28;5046638;28;20515;-77
2023/12/22 03:23:42;;;;;;;;;;;;;;;33.69;14.76;100423.88;5042109;28;20025;-77
2023/12/22 03:26:07;;;;;;;2.93;0.70;;;;;;;31.21;16.65;100428.22;5071512;28;20019;-77
2023/12/22 03:28:33;;;;;;;12.10;1.17;;;;;;;30.41;16.94;100431.78;5052528;28;20076;-77
2023/12/22 03:30:59;;;;;;;3.73;0.37;;;;;;;29.98;17.09;100425.31;5046205;28;20548;-77
2023/12/22 03:33:24;;;;;;;10.93;1.03;;;;;;;33.03;14.80;100434.06;5039746;28;20024;-77
2023/12/22 03:35:50;;;;;;;6.80;1.53;;;;;;;29.91;16.78;100438.53;5069813;28;20024;-77
2023/12/22 03:38:15;;;;;;;3.27;1.10;;;;;;;30.89;15.88;100440.47;5067846;28;20457;-77
2023/12/22 03:40:40;;;;;;;4.57;0.67;;;;;;;31.38;15.47;100436.41;5049513;28;20028;-77
2023/12/22 03:43:06;;;;;;;5.93;1.03;;;;;;;30.95;16.08;100437.16;5049464;28;20033;-77
2023/12/22 03:45:31;;;;;;;11.27;1.07;;;;;;;31.75;15.63;100416.34;5050772;28;20035;-77
2023/12/22 03:47:56;;;;;;;8.47;0.80;;;;;;;32.71;14.86;100424.97;5051383;28;20048;-77
2023/12/22 03:50:22;;;;;;;7.30;1.43;;;;;;;33.22;14.42;100440.94;5067654;28;20401;-78
2023/12/22 03:52:47;;;;;;;7.63;1.87;;;;;;;31.84;15.53;100431.56;5068752;28;20036;-77
2023/12/22 03:55:12;;;;;;;6.20;1.30;;;;;;;33.43;14.78;100435.84;5063389;28;20102;-76
2023/12/22 03:57:38;;;;;;;6.97;1.67;;;;;;;32.73;15.35;100431.06;5050434;28;20057;-77
2023/12/22 04:00:04;;;;;;;2.63;0.70;;;;;;;32.27;15.23;100445.91;5072667;28;20030;-77
2023/12/22 04:02:29;;;;;;;7.80;1.10;;;;;;;33.18;15.27;100454.00;5029057;28;20036;-77
2023/12/22 04:04:55;;;;;;;7.83;1.20;;;;;;;33.29;15.26;100450.94;5052574;28;20028;-77
2023/12/22 04:07:20;;;;;;;5.70;0.97;;;;;;;35.00;14.21;100449.25;5049071;28;20033;-78
2023/12/22 04:09:45;;;;;;;13.27;1.10;;;;;;;33.99;14.63;100454.75;5061697;28;20111;-77
2023/12/22 04:12:11;;;;;;;5.90;0.70;;;;;;;33.45;15.29;100454.63;5068993;28;20028;-78
2023/12/22 04:14:36;;;;;;;6.27;0.60;;;;;;;32.30;16.17;100461.78;5060921;28;20064;-77
2023/12/22 04:17:01;;;;;;;11.50;1.90;;;;;;;34.37;15.13;100461.31;5049746;28;20033;-78
2023/12/22 04:19:27;;;;;;;5.07;1.27;;;;;;;35.76;13.85;100458.28;5057041;28;20427;-77
2023/12/22 04:21:52;;;;;;;2.20;0.50;;;;;;;33.71;15.17;100470.59;5068925;28;20028;-77
2023/12/22 04:24:17;;;;;;;7.23;1.27;;;;;;;33.66;15.53;100462.16;5062963;28;20029;-77
2023/12/22 04:26:43;;;;;;;22.23;1.53;;;;;;;34.08;14.92;100473.69;5064724;28;20029;-77
2023/12/22 04:29:08;;;;;;;11.10;1.47;;;;;;;35.87;13.56;100463.22;5054104;28;20028;-76
2023/12/22 04:31:33;;;;;;;2.20;0.80;;;;;;;34.87;14.02;100464.50;5069229;28;20067;-77
2023/12/22 04:33:59;;;;;;;9.10;1.10;;;;;;;35.03;14.10;100471.66;5055136;28;20037;-77
2023/12/22 04:36:24;;;;;;;3.80;1.07;;;;;;;36.03;13.27;100453.19;5070176;28;20294;-77
2023/12/22 04:38:52;;;;;;;5.73;0.77;;;;;;;36.34;13.29;100448.31;5059665;28;20122;-77
2023/12/22 04:41:17;;;;;;;8.83;0.90;;;;;;;35.77;13.87;100444.47;5057695;28;20484;-77
2023/12/22 04:43:43;;;;;;;3.07;1.13;;;;;;;37.68;12.71;100441.09;5045444;28;20118;-77
2023/12/22 04:46:08;;;;;;;15.23;1.47;;;;;;;33.14;16.70;100442.66;5045514;28;20485;-77
2023/12/22 04:48:33;;;;;;;5.50;1.03;;;;;;;35.71;14.91;100434.38;5047695;28;20032;-77
2023/12/22 04:50:59;;;;;;;2.43;0.83;;;;;;;32.63;17.29;100434.75;5057303;28;20051;-77
2023/12/22 04:53:24;;;;;;;4.07;1.00;;;;;;;35.83;15.28;100446.47;5045520;28;20033;-77
2023/12/22 04:55:50;;;;;;;19.27;1.87;;;;;;;33.97;16.77;100440.50;5062490;28;20093;-77
2023/12/22 04:58:15;;;;;;;2.90;0.93;;;;;;;32.69;17.89;100470.25;5058377;28;20437;-77
2023/12/22 05:00:40;;;;;;;1.87;0.50;;;;;;;34.02;16.78;100466.25;5063964;28;20024;-77
2023/12/22 05:03:06;;;;;;;2.97;0.60;;;;;;;32.25;18.08;100464.13;5063203;28;20032;-77
2023/12/22 05:05:31;;;;;;;2.53;0.93;;;;;;;31.72;18.79;100459.88;5061966;28;20033;-76
2023/12/22 05:07:57;;;;;;;5.07;1.30;;;;;;;34.44;16.39;100475.84;5057099;28;20057;-75
2023/12/22 05:10:22;;;;;;;9.37;2.40;;;;;;;34.77;16.04;100470.16;5048160;28;20480;-75
2023/12/22 05:12:47;;;;;;;11.07;1.23;;;;;;;36.99;14.41;100464.59;5068634;28;20028;-76
2023/12/22 05:15:13;;;;;;;6.60;1.37;;;;;;;35.38;15.65;100477.41;5059388;28;20491;-76
2023/12/22 05:17:40;;;;;;;5.83;1.30;;;;;;;32.25;17.91;100469.53;5049109;28;20064;-76
2023/12/22 05:20:06;;;;;;;9.10;0.87;;;;;;;33.44;16.90;100470.03;5053215;28;20430;-77
2023/12/22 05:22:32;;;;;;;8.23;1.33;;;;;;;34.46;16.08;100462.97;5058088;28;20360;-77
2023/12/22 05:24:58;;;;;;;9.57;1.20;;;;;;;34.89;15.65;100455.13;5035937;28;20071;-76
2023/12/22 05:27:24;;;;;;;7.67;1.33;;;;;;;37.84;13.81;100455.47;5050765;28;20070;-76
2023/12/22 05:29:49;;;;;;;7.37;1.00;;;;;;;35.41;15.43;100455.31;5051087;28;20044;-76
2023/12/22 05:32:15;;;;;;;2.47;0.70;;;;;;;32.04;17.90;100453.75;5068347;28;20032;-77
2023/12/22 05:34:40;;;;;;;13.77;1.43;;;;;;;35.18;15.52;100442.63;5072415;28;20030;-76
2023/12/22 05:37:08;;;;;;;8.00;1.93;;;;;;;34.24;16.33;100438.31;5067993;28;20036;-76
2023/12/22 05:39:34;;;;;;;8.17;1.57;;;;;;;33.64;16.77;100442.53;5067891;28;20031;-77
2023/12/22 05:41:59;;;;;;;4.70;1.27;;;;;;;36.25;14.62;100465.75;5072029;28;20119;-76
2023/12/22 05:44:29;;;;;;;12.73;1.73;;;;;;;35.88;15.23;100456.78;5071284;28;20113;-77
2023/12/22 05:46:55;;;;;;;8.13;2.03;;;;;;;34.69;15.55;100440.38;5052738;28;20037;-76
2023/12/22 05:49:20;;;;;;;7.83;1.37;;;;;;;35.75;15.30;100441.13;5034472;28;20404;-76
2023/12/22 05:51:45;;;;;;;10.57;1.67;;;;;;;36.23;14.95;100427.03;5037831;28;20067;-76
2023/12/22 05:54:11;;;;;;;6.10;1.57;;;;;;;36.82;14.65;100425.06;5053143;28;20036;-77
2023/12/22 05:56:36;;;;;;;9.03;1.57;;;;;;;35.58;15.39;100437.75;5054471;28;20055;-76
2023/12/22 05:59:03;;;;;;;12.50;1.87;;;;;;;32.55;18.42;100442.88;5051836;28;20033;-77
2023/12/22 06:01:31;;;;;;;9.73;1.57;;;;;;;33.87;17.17;100456.16;5056902;28;20381;-77
2023/12/22 06:03:57;;;;;;;14.90;3.27;;;;;;;36.84;14.90;100455.69;5064351;28;20059;-76
2023/12/22 06:06:22;;;;;;;12.13;1.43;;;;;;;35.42;15.91;100463.28;5061226;28;20387;-76
2023/12/22 06:08:48;;;;;;;16.20;2.43;;;;;;;36.19;15.52;100469.25;5055755;28;20029;-76
2023/12/22 06:11:14;;;;;;;8.80;1.97;;;;;;;36.00;15.82;100448.97;5054237;28;20025;-76
2023/12/22 06:13:39;;;;;;;18.47;1.83;;;;;;;34.90;16.31;100459.56;5070536;28;20024;-76
2023/12/22 06:16:05;;;;;;;13.40;2.47;;;;;;;33.70;17.44;100451.81;5071203;28;20036;-76
2023/12/22 06:18:30;;;;;;;16.97;2.67;;;;;;;36.97;14.77;100450.34;5060411;28;20032;-76
2023/12/22 06:20:55;;;;;;;13.70;2.33;;;;;;;36.72;14.68;100465.38;5056466;28;20465;-76
2023/12/22 06:23:21;;;;;;;8.00;2.23;;;;;;;32.94;18.09;100453.00;5071228;28;20464;-77
2023/12/22 06:25:46;;;;;;;13.93;2.63;;;;;;;37.79;14.01;100447.03;5066800;28;20681;-76
2023/12/22 06:28:12;;;;;;;11.97;2.27;;;;;;;34.92;16.34;100468.34;5052255;28;20464;-76
2023/12/22 06:30:38;;;;;;;19.13;2.20;;;;;;;35.91;15.41;100450.94;5052726;28;20098;-76
2023/12/22 06:33:03;;;;;;;16.70;2.37;;;;;;;35.95;15.70;100446.81;5067383;28;20035;-76
2023/12/22 06:35:33;;;;;;;25.67;3.27;;;;;;;36.53;14.96;100454.13;5067599;28;20029;-77
2023/12/22 06:38:03;;;;;;;13.73;3.83;;;;;;;36.27;15.13;100452.81;5067583;28;20036;-76
2023/12/22 06:40:34;;;;;;;17.37;2.77;;;;;;;37.88;14.41;100451.28;5045625;28;20037;-76
2023/12/22 06:42:59;;;;;;;16.57;2.73;;;;;;;37.17;14.58;100450.44;5065047;28;20190;-76
2023/12/22 06:45:24;;;;;;;8.90;2.33;;;;;;;35.71;15.50;100444.41;5051625;28;20155;-77
2023/12/22 06:47:50;;;;;;;10.40;2.43;;;;;;;36.11;15.23;100439.47;5065834;28;20033;-77
2023/12/22 06:50:15;;;;;;;18.63;3.03;;;;;;;36.36;15.23;100441.84;5052138;28;20550;-76
2023/12/22 06:52:40;;;;;;;24.40;9.17;;;;;;;37.00;14.31;100433.59;5056239;28;20071;-76
2023/12/22 06:55:06;;;;;;;28.13;9.40;;;;;;;35.94;15.38;100442.44;5066485;28;20033;-76
2023/12/22 06:57:31;;;;;;;28.03;6.33;;;;;;;38.49;13.58;100435.88;5063142;28;20510;-76
2023/12/22 06:59:57;;;;;;;23.50;7.30;;;;;;;37.86;14.03;100437.00;5052141;28;20040;-76
2023/12/22 07:02:22;;;;;;;31.77;8.97;;;;;;;36.77;15.04;100428.38;5062535;28;20761;-76
2023/12/22 07:05:06;;;;;;;20.77;6.90;;;;;;;39.53;12.83;100433.44;5062938;28;20614;-77
2023/12/22 07:07:32;;;;;;;17.30;3.00;;;;;;;37.68;14.29;100435.63;5063259;28;20044;-76
2023/12/22 07:09:57;;;;;;;20.13;2.43;;;;;;;38.16;14.00;100425.75;5051127;28;20032;-76
2023/12/22 07:12:23;;;;;;;11.23;1.83;;;;;;;34.61;16.64;100439.44;5061829;28;20024;-77
2023/12/22 07:14:48;;;;;;;22.20;2.83;;;;;;;37.51;14.67;100426.16;5069556;28;20359;-76
2023/12/22 07:17:14;;;;;;;23.10;3.07;;;;;;;35.58;16.20;100429.63;5059052;28;20491;-76
2023/12/22 07:19:39;;;;;;;13.67;2.30;;;;;;;35.99;15.65;100425.53;5057341;28;20107;-76
2023/12/22 07:22:04;;;;;;;17.63;3.10;;;;;;;36.33;15.55;100422.13;5046616;28;20493;-76
2023/12/22 07:24:30;;;;;;;9.47;1.50;;;;;;;35.97;16.07;100425.72;5049041;28;20024;-77
2023/12/22 07:26:55;;;;;;;16.10;2.50;;;;;;;36.23;15.96;100416.16;5053469;28;20029;-77
2023/12/22 07:29:20;;;;;;;10.97;1.57;;;;;;;36.49;15.59;100425.63;5053272;28;20056;-77
2023/12/22 07:31:46;;;;;;;6.53;1.83;;;;;;;36.19;15.71;100433.91;5067620;28;20469;-77
2023/12/22 07:34:11;;;;;;;12.07;2.17;;;;;;;36.82;15.35;100425.94;5058054;28;20039;-77
2023/12/22 07:36:36;;;;;;;26.03;4.20;;;;;;;37.79;14.50;100430.69;5049018;28;20041;-77
2023/12/22 07:39:02;;;;;;;9.30;1.63;;;;;;;36.50;15.93;100438.19;5046937;28;20499;-77
2023/12/22 07:41:27;;;;;;;17.17;2.30;;;;;;;34.37;17.25;100445.06;5049732;28;20033;-77
2023/12/22 07:43:53;;;;;;;7.90;1.50;;;;;;;34.37;17.55;100431.50;5048099;28;20491;-77
2023/12/22 07:46:19;;;;;;;11.07;1.80;;;;;;;35.61;16.63;100434.69;5049260;28;20459;-77
2023/12/22 07:48:45;;;;;;;10.20;2.10;;;;;;;37.65;15.08;100413.41;5049101;28;20041;-77
2023/12/22 07:51:11;;;;;;;16.17;3.63;;;;;;;36.44;16.10;100417.22;5048146;28;20029;-77
2023/12/22 07:53:36;;;;;;;11.70;1.30;;;;;;;35.58;17.06;100424.19;5048717;28;20036;-77
2023/12/22 07:56:02;;;;;;;13.40;1.53;;;;;;;34.14;18.53;100426.84;5049340;28;20404;-77
2023/12/22 07:58:27;;;;;;;7.13;2.17;;;;;;;35.58;17.49;100416.03;5056100;28;20039;-76
2023/12/22 08:00:52;;;;;;;10.70;1.67;;;;;;;34.74;18.30;100416.25;5044553;28;20037;-76
2023/12/22 08:03:19;;;;;;;5.83;1.57;;;;;;;32.69;20.54;100437.81;5052065;28;20035;-76
2023/12/22 08:05:44;;;;;;;6.33;1.20;;;;;;;35.13;18.27;100420.63;5048690;28;20028;-76
2023/12/22 08:08:10;;;;;;;8.83;1.00;;;;;;;34.26;18.85;100425.41;5051362;28;20112;-75
2023/12/22 08:10:35;;;;;;;10.70;1.70;;;;;;;35.41;17.79;100418.13;5050320;28;20064;-77
2023/12/22 08:13:00;;;;;;;4.17;1.20;;;;;;;34.82;18.54;100413.50;5051704;28;20035;-76
2023/12/22 08:15:26;;;;;;;13.40;1.50;;;;;;;35.64;17.75;100415.28;5048948;28;20037;-76
2023/12/22 08:17:52;;;;;;;8.67;1.73;;;;;;;34.93;18.09;100421.16;5043161;28;20181;-76
2023/12/22 08:20:21;;;;;;;3.47;1.57;;;;;;;36.08;17.40;100404.47;5053723;28;20044;-76
2023/12/22 08:22:50;;;;;;;11.13;1.40;;;;;;;36.09;17.44;100398.84;5045354;28;20032;-77
2023/12/22 08:25:20;;;;;;;11.43;2.80;;;;;;;36.60;17.13;100405.19;5067635;28;20027;-76
2023/12/22 08:27:45;;;;;;;3.37;0.97;;;;;;;34.24;19.03;100427.47;5050071;28;20027;-76
2023/12/22 08:30:11;;;;;;;8.77;1.07;;;;;;;34.20;19.50;100420.72;5054797;28;20033;-76
2023/12/22 08:32:37;;;;;;;13.70;1.33;;;;;;;35.56;18.31;100409.97;5049104;28;20037;-76
2023/12/22 08:35:04;;;;;;;5.60;1.77;;;;;;;35.71;18.25;100400.91;5061224;28;20032;-76
2023/12/22 08:37:30;;;;;;;2.03;0.97;;;;;;;35.79;17.96;100395.38;5045021;28;20025;-76
2023/12/22 08:39:55;;;;;;;11.97;1.60;;;;;;;35.73;17.85;100416.00;5048896;28;20396;-76
2023/12/22 08:42:22;;;;;;;7.63;1.30;;;;;;;36.61;17.33;100413.16;5048639;28;20033;-76
2023/12/22 08:44:47;;;;;;;9.23;1.13;;;;;;;37.22;17.13;100403.56;5051605;28;20634;-75
2023/12/22 08:47:13;;;;;;;4.37;0.97;;;;;;;36.02;18.27;100391.69;5046341;28;20116;-76
2023/12/22 08:49:38;;;;;;;5.57;1.50;;;;;;;37.23;17.50;100386.16;5049188;28;20044;-76
2023/12/22 08:52:04;;;;;;;5.90;1.17;;;;;;;35.27;18.94;100395.34;5048976;28;20029;-76
2023/12/22 08:54:30;;;;;;;0.00;0.00;;;;;;;36.27;17.76;100397.56;5056126;28;20024;-76
2023/12/22 08:56:55;;;;;;;0.00;0.00;;;;;;;35.20;19.07;100410.72;5053538;28;20033;-76
2023/12/22 08:59:20;;;;;;;0.00;0.00;;;;;;;35.37;18.43;100388.81;5049573;28;20099;-77
2023/12/22 09:01:46;;;;;;;0.00;0.00;;;;;;;35.82;18.47;100405.91;5047970;28;20029;-77
2023/12/22 09:04:11;;;;;;;0.00;0.00;;;;;;;34.79;19.08;100402.97;5054208;28;20028;-76
2023/12/22 09:06:37;;;;;;;0.10;0.10;;;;;;;36.90;17.12;100392.25;5068329;28;20111;-76
2023/12/22 09:09:06;;;;;;;0.00;0.00;;;;;;;35.53;18.49;100410.34;5056492;28;20060;-77
2023/12/22 09:11:31;;;;;;;6.70;2.87;;;;;;;36.05;17.84;100416.59;5052492;28;20040;-77
2023/12/22 09:13:57;;;;;;;0.00;0.00;;;;;;;37.74;16.80;100422.25;5025351;28;20408;-77
2023/12/22 09:16:23;;;;;;;0.00;0.00;;;;;;;39.12;15.63;100405.38;5044212;28;20033;-76
2023/12/22 09:18:49;;;;;;;0.00;0.00;;;;;;;36.53;17.75;100394.25;5052773;28;20656;-77
2023/12/22 09:21:15;;;;;;;0.00;0.00;;;;;;;36.21;18.03;100390.19;5057508;28;20124;-76
2023/12/22 09:23:44;;;;;;;0.00;0.00;;;;;;;34.75;19.09;100399.78;5051666;28;20185;-76
2023/12/22 09:26:09;;;;;;;0.63;0.63;;;;;;;37.75;16.62;100392.03;5067310;28;20033;-77
2023/12/22 09:28:35;;;;;;;0.00;0.00;;;;;;;36.93;17.16;100413.66;5052077;28;20029;-75
2023/12/22 09:31:00;;;;;;;4.80;0.30;;;;;;;35.66;18.39;100412.38;5066506;28;20036;-76
2023/12/22 09:33:26;;;;;;;1.90;0.70;;;;;;;38.35;15.88;100413.22;5058821;28;20090;-76
2023/12/22 09:35:52;;;;;;;3.70;0.63;;;;;;;37.78;16.12;100415.38;5080869;28;20024;-76
2023/12/22 09:38:17;;;;;;;1.63;0.70;;;;;;;38.59;15.64;100421.81;5054049;28;20068;-76
2023/12/22 09:40:42;;;;;;;1.70;0.60;;;;;;;37.41;16.44;100412.06;5058530;28;20109;-76
2023/12/22 09:43:08;;;;;;;6.50;0.70;;;;;;;36.52;17.56;100408.91;5067773;28;20084;-77
2023/12/22 09:45:34;;;;;;;5.50;0.83;;;;;;;35.71;18.15;100409.94;5055626;28;20373;-76
2023/12/22 09:48:01;;;;;;;9.77;1.43;;;;;;;36.95;17.12;100419.72;5050861;28;20477;-77
2023/12/22 09:50:27;;;;;;;3.53;1.00;;;;;;;36.54;17.87;100428.59;5037522;28;20515;-76
2023/12/22 09:52:52;;;;;;;4.20;0.87;;;;;;;36.85;17.43;100430.16;5051861;28;20032;-76
2023/12/22 09:55:21;;;;;;;5.87;0.70;;;;;;;35.80;18.12;100427.78;5051821;28;20469;-77
2023/12/22 09:57:47;;;;;;;0.80;0.57;;;;;;;38.26;16.62;100437.09;5046848;28;20080;-77
2023/12/22 10:00:15;;;;;;;5.03;0.83;;;;;;;37.06;17.17;100428.41;5054218;28;20024;-77
2023/12/22 10:02:42;;;;;;;3.00;0.70;;;;;;;37.51;16.86;100423.44;5052121;28;20039;-77
2023/12/22 10:05:10;;;;;;;2.10;0.70;;;;;;;37.95;16.11;100440.38;5050810;28;20547;-77
2023/12/22 10:07:35;;;;;;;6.03;1.00;;;;;;;36.41;17.58;100425.75;5067529;28;20065;-78
2023/12/22 10:10:03;;;;;;;3.00;0.57;;;;;;;36.18;17.44;100429.50;5052666;28;20514;-78
2023/12/22 10:12:34;;;;;;;6.57;1.17;;;;;;;37.57;16.64;100432.69;5062476;28;20399;-78
2023/12/22 10:15:00;;;;;;;1.87;0.70;;;;;;;39.09;15.62;100432.28;5041618;28;20052;-78
2023/12/22 10:17:27;;;;;;;5.03;1.00;;;;;;;36.39;17.35;100436.84;5057410;28;20033;-77
2023/12/22 10:19:52;;;;;;;7.70;1.93;;;;;;;37.10;16.75;100433.22;5051532;28;20036;-78
2023/12/22 10:22:18;;;;;;;2.17;1.00;;;;;;;34.98;18.66;100448.63;5069027;28;20486;-79
2023/12/22 10:24:50;;;;;;;3.23;1.13;;;;;;;36.11;17.57;100440.31;5070731;28;20072;-77
2023/12/22 10:27:23;;;;;;;5.25;0.77;;;;;;;35.83;17.49;100435.63;5053345;28;20028;-78
2023/12/22 10:29:54;;;;;;;3.83;0.80;;;;;;;38.41;15.80;100430.63;5050693;28;20768;-78
2023/12/22 10:32:21;;;;;;;4.97;0.95;;;;;;;35.56;17.74;100442.56;5069633;28;20577;-79
2023/12/22 10:34:47;;;;;;;3.73;0.40;;;;;;;37.32;16.37;100431.28;5053704;28;20032;-78
2023/12/22 10:37:15;;;;;;;3.53;0.70;;;;;;;37.29;16.44;100437.16;5053646;28;20393;-79
2023/12/22 10:39:41;;;;;;;4.50;0.70;;;;;;;36.85;16.89;100441.03;5050558;28;20556;-78
2023/12/22 10:42:07;;;;;;;2.77;0.73;;;;;;;37.98;15.97;100439.97;5063463;28;20028;-78
2023/12/22 10:44:32;;;;;;;3.20;0.60;;;;;;;35.81;17.72;100445.78;5051624;28;20047;-79
2023/12/22 10:46:58;;;;;;;4.83;1.00;;;;;;;35.89;17.44;100435.84;5060273;28;20052;-79
2023/12/22 10:49:24;;;;;;;3.77;0.67;;;;;;;37.48;16.32;100434.72;5060806;28;20040;-77
2023/12/22 10:51:51;;;;;;;1.67;0.60;;;;;;;36.13;17.37;100437.38;5059940;28;20491;-79
2023/12/22 10:54:17;;;;;;;2.20;0.60;;;;;;;36.57;17.19;100439.09;5067448;28;20510;-78
2023/12/22 10:56:42;;;;;;;5.60;1.33;;;;;;;37.93;16.01;100421.47;5048985;28;20451;-78
2023/12/22 10:59:11;;;;;;;1.97;0.70;;;;;;;37.09;16.87;100441.59;5066702;28;20097;-77
2023/12/22 11:01:40;;;;;;;1.70;1.00;;;;;;;36.46;17.14;100450.50;5053884;28;20035;-78
2023/12/22 11:04:08;;;;;;;0.50;0.40;;;;;;;35.83;17.65;100426.59;5049970;28;20121;-78
2023/12/22 11:06:39;;;;;;;2.17;0.70;;;;;;;36.73;16.78;100426.25;5050360;28;20064;-79
2023/12/22 11:09:09;;;;;;;5.67;0.93;;;;;;;38.35;15.82;100419.50;5049844;28;20028;-78
2023/12/22 11:11:35;;;;;;;5.67;0.73;;;;;;;39.28;14.82;100425.97;5051973;28;20032;-78
2023/12/22 11:14:01;;;;;;;3.63;0.83;;;;;;;38.18;16.05;100420.91;5050759;28;20029;-80
2023/12/22 11:16:31;;;;;;;1.73;0.63;;;;;;;38.43;15.81;100420.31;5049686;28;20224;-78
2023/12/22 11:18:58;;;;;;;4.20;0.77;;;;;;;36.52;17.30;100392.59;5072123;28;20032;-77